createdAt,value
2019-02-07T00:00:40.428Z,71.24
2019-02-07T00:01:40.431Z,71.07
2019-02-07T00:02:40.460Z,71.17
2019-02-07T00:03:40.393Z,71.03
2019-02-07T00:04:40.392Z,72.00
2019-02-07T00:05:40.392Z,70.65
2019-02-07T00:06:40.364Z,71.17
2019-02-07T00:07:40.393Z,71.14
2019-02-07T00:08:40.373Z,71.38
2019-02-07T00:09:40.321Z,71.07
2019-02-07T00:10:40.318Z,70.65
2019-02-07T00:11:40.301Z,71.07
2019-02-07T00:12:40.292Z,70.54
2019-02-07T00:13:40.301Z,71.07
2019-02-07T00:14:40.279Z,70.65
2019-02-07T00:15:40.828Z,70.75
2019-02-07T00:16:40.288Z,70.54
2019-02-07T00:17:40.296Z,71.07
2019-02-07T00:18:40.252Z,71.38
2019-02-07T00:19:40.230Z,70.65
2019-02-07T00:20:40.212Z,71.07
2019-02-07T00:21:40.207Z,70.97
2019-02-07T00:22:40.226Z,71.38
2019-02-07T00:23:40.190Z,71.17
2019-02-07T00:24:42.817Z,71.17
2019-02-07T00:25:40.205Z,70.86
2019-02-07T00:26:40.182Z,70.79
2019-02-07T00:27:40.180Z,71.07
2019-02-07T00:28:40.118Z,71.41
2019-02-07T00:29:40.119Z,71.00
2019-02-07T00:30:48.215Z,71.17
2019-02-07T00:31:40.109Z,71.10
2019-02-07T00:32:40.143Z,71.41
2019-02-07T00:33:48.132Z,70.58
2019-02-07T00:34:47.911Z,70.79
2019-02-07T00:35:47.163Z,71.10
2019-02-07T00:36:48.419Z,71.00
2019-02-07T00:37:48.470Z,71.23
2019-02-07T00:38:48.955Z,71.34
2019-02-07T00:39:48.060Z,71.31
2019-02-07T00:40:40.052Z,71.34
2019-02-07T00:41:40.045Z,71.34
2019-02-07T00:42:40.007Z,71.97
2019-02-07T00:43:47.016Z,72.20
2019-02-07T00:44:50.246Z,72.07
2019-02-07T00:45:41.054Z,71.37
2019-02-07T00:46:47.995Z,71.86
2019-02-07T00:47:47.026Z,71.37
2019-02-07T00:48:46.976Z,71.55
2019-02-07T00:49:46.961Z,71.34
2019-02-07T00:50:39.886Z,71.27
2019-02-07T00:51:47.915Z,71.06
2019-02-07T00:52:47.946Z,71.37
2019-02-07T00:53:46.904Z,70.75
2019-02-07T00:54:47.697Z,71.27
2019-02-07T00:55:47.891Z,70.75
2019-02-07T00:56:47.719Z,71.06
2019-02-07T00:57:48.739Z,71.17
2019-02-07T00:58:39.842Z,70.95
2019-02-07T00:59:39.818Z,71.06
2019-02-07T01:00:39.776Z,71.06
2019-02-07T01:01:39.795Z,71.17
2019-02-07T01:02:39.776Z,70.75
2019-02-07T01:03:39.785Z,70.54
2019-02-07T01:04:39.788Z,70.23
2019-02-07T01:05:39.710Z,70.23
2019-02-07T01:06:47.659Z,71.27
2019-02-07T01:07:47.806Z,70.23
2019-02-07T01:08:46.933Z,70.54
2019-02-07T01:09:46.777Z,70.95
2019-02-07T01:10:49.681Z,70.75
2019-02-07T01:11:47.709Z,70.05
2019-02-07T01:12:48.423Z,70.05
2019-02-07T01:13:47.912Z,71.30
2019-02-07T01:14:47.456Z,70.78
2019-02-07T01:15:48.697Z,70.57
2019-02-07T01:16:46.753Z,70.47
2019-02-07T01:17:47.634Z,69.84
2019-02-07T01:18:47.214Z,70.99
2019-02-07T01:19:39.666Z,71.51
2019-02-07T01:20:39.586Z,70.47
2019-02-07T01:21:39.585Z,71.30
2019-02-07T01:22:39.538Z,70.50
2019-02-07T01:23:39.542Z,70.29
2019-02-07T01:24:39.552Z,70.40
2019-02-07T01:25:39.571Z,71.02
2019-02-07T01:26:39.510Z,70.71
2019-02-07T01:27:39.527Z,70.71
2019-02-07T01:28:39.551Z,70.92
2019-02-07T01:29:39.466Z,71.33
2019-02-07T01:30:39.477Z,70.71
2019-02-07T01:31:39.475Z,71.02
2019-02-07T01:32:39.443Z,70.92
2019-02-07T01:33:39.447Z,70.71
2019-02-07T01:34:39.400Z,70.74
2019-02-07T01:35:39.446Z,70.84
2019-02-07T01:36:39.447Z,70.74
2019-02-07T01:37:39.413Z,70.74
2019-02-07T01:38:39.466Z,71.26
2019-02-07T01:39:39.349Z,71.68
2019-02-07T01:40:39.348Z,71.16
2019-02-07T01:41:39.337Z,71.47
2019-02-07T01:42:39.340Z,71.37
2019-02-07T01:43:39.362Z,71.47
2019-02-07T01:44:39.340Z,71.37
2019-02-07T01:45:39.286Z,71.37
2019-02-07T01:46:39.310Z,71.50
2019-02-07T01:47:39.278Z,71.61
2019-02-07T01:48:39.301Z,71.61
2019-02-07T01:49:39.264Z,72.02
2019-02-07T01:50:40.020Z,71.92
2019-02-07T01:51:39.240Z,71.47
2019-02-07T01:52:40.049Z,71.50
2019-02-07T01:53:39.239Z,71.30
2019-02-07T01:54:39.235Z,71.47
2019-02-07T01:55:39.196Z,71.58
2019-02-07T01:56:39.181Z,71.47
2019-02-07T01:57:39.164Z,71.47
2019-02-07T01:58:39.558Z,71.30
2019-02-07T01:59:39.163Z,71.16
2019-02-07T02:00:39.163Z,71.99
2019-02-07T02:01:39.186Z,72.02
2019-02-07T02:02:39.139Z,72.02
2019-02-07T02:03:39.121Z,72.02
2019-02-07T02:04:39.126Z,71.92
2019-02-07T02:05:39.103Z,71.92
2019-02-07T02:06:39.108Z,71.92
2019-02-07T02:07:39.121Z,72.13
2019-02-07T02:08:39.089Z,72.24
2019-02-07T02:09:39.381Z,71.92
2019-02-07T02:10:39.055Z,71.92
2019-02-07T02:11:39.073Z,72.13
2019-02-07T02:12:39.071Z,72.02
2019-02-07T02:13:39.021Z,72.34
2019-02-07T02:14:39.044Z,72.34
2019-02-07T02:15:38.990Z,72.55
2019-02-07T02:16:38.984Z,72.47
2019-02-07T02:17:38.997Z,72.55
2019-02-07T02:18:38.961Z,72.44
2019-02-07T02:19:39.010Z,72.34
2019-02-07T02:20:38.910Z,72.47
2019-02-07T02:21:38.940Z,72.27
2019-02-07T02:22:38.919Z,72.06
2019-02-07T02:23:38.909Z,72.06
2019-02-07T02:24:38.932Z,71.85
2019-02-07T02:25:46.609Z,72.34
2019-02-07T02:26:46.918Z,71.81
2019-02-07T02:27:47.535Z,72.06
2019-02-07T02:28:38.858Z,71.92
2019-02-07T02:29:38.872Z,72.13
2019-02-07T02:30:38.837Z,71.92
2019-02-07T02:31:38.841Z,72.24
2019-02-07T02:32:38.796Z,71.50
2019-02-07T02:33:38.786Z,72.02
2019-02-07T02:34:38.811Z,71.50
2019-02-07T02:35:38.800Z,71.85
2019-02-07T02:36:38.802Z,72.06
2019-02-07T02:37:38.769Z,72.06
2019-02-07T02:38:38.776Z,72.06
2019-02-07T02:39:38.785Z,72.27
2019-02-07T02:40:38.749Z,72.06
2019-02-07T02:41:38.761Z,72.06
2019-02-07T02:42:38.708Z,72.06
2019-02-07T02:43:38.715Z,72.13
2019-02-07T02:44:38.733Z,71.53
2019-02-07T02:45:38.698Z,71.53
2019-02-07T02:46:38.677Z,72.06
2019-02-07T02:47:38.654Z,71.95
2019-02-07T02:48:38.657Z,71.53
2019-02-07T02:49:38.656Z,71.43
2019-02-07T02:50:38.611Z,70.50
2019-02-07T02:51:38.623Z,71.33
2019-02-07T02:52:40.359Z,70.60
2019-02-07T02:53:38.594Z,70.91
2019-02-07T02:54:38.597Z,70.70
2019-02-07T02:55:38.586Z,71.33
2019-02-07T02:56:38.544Z,71.22
2019-02-07T02:57:38.567Z,70.91
2019-02-07T02:58:46.563Z,71.12
2019-02-07T02:59:45.582Z,70.91
2019-02-07T03:01:55.481Z,70.91
2019-02-07T03:02:56.011Z,71.01
2019-02-07T03:03:55.151Z,70.60
2019-02-07T03:04:55.071Z,70.81
2019-02-07T03:05:55.047Z,71.01
2019-02-07T03:06:55.042Z,70.81
2019-02-07T03:07:55.066Z,71.22
2019-02-07T03:08:55.023Z,70.60
2019-02-07T03:09:55.034Z,71.22
2019-02-07T03:10:54.999Z,70.84
2019-02-07T03:11:55.017Z,71.33
2019-02-07T03:12:55.018Z,71.67
2019-02-07T03:13:54.952Z,71.33
2019-02-07T03:14:54.958Z,71.53
2019-02-07T03:15:54.977Z,71.47
2019-02-07T03:16:54.981Z,70.91
2019-02-07T03:17:54.946Z,71.33
2019-02-07T03:18:54.897Z,71.95
2019-02-07T03:19:54.903Z,71.95
2019-02-07T03:20:54.906Z,72.06
2019-02-07T03:21:54.902Z,72.06
2019-02-07T03:22:54.901Z,72.09
2019-02-07T03:23:54.893Z,71.88
2019-02-07T03:24:54.886Z,71.88
2019-02-07T03:25:54.884Z,72.09
2019-02-07T03:26:54.846Z,71.88
2019-02-07T03:27:54.836Z,72.30
2019-02-07T03:29:01.874Z,71.88
2019-02-07T03:30:02.874Z,71.88
2019-02-07T03:30:54.937Z,72.19
2019-02-07T03:31:55.016Z,71.98
2019-02-07T03:32:54.782Z,72.30
2019-02-07T03:33:54.755Z,71.78
2019-02-07T03:34:54.759Z,71.88
2019-02-07T03:35:54.785Z,72.41
2019-02-07T03:36:54.779Z,72.44
2019-02-07T03:37:54.713Z,72.75
2019-02-07T03:38:54.689Z,72.54
2019-02-07T03:39:54.688Z,72.54
2019-02-07T03:40:54.727Z,73.07
2019-02-07T03:41:54.697Z,73.58
2019-02-07T03:42:54.688Z,72.75
2019-02-07T03:45:11.250Z,71.91
2019-02-07T03:46:11.248Z,71.91
2019-02-07T03:47:19.565Z,71.91
2019-02-07T03:48:18.295Z,72.13
2019-02-07T03:49:19.159Z,71.81
2019-02-07T03:50:18.342Z,71.39
2019-02-07T03:51:19.273Z,72.02
2019-02-07T03:52:19.365Z,71.60
2019-02-07T03:53:19.770Z,71.70
2019-02-07T03:54:19.814Z,71.39
2019-02-07T03:55:11.194Z,71.39
2019-02-07T03:56:11.182Z,70.98
2019-02-07T03:57:11.113Z,71.39
2019-02-07T03:58:11.784Z,71.39
2019-02-07T03:59:11.133Z,71.84
2019-02-07T04:00:11.104Z,71.74
2019-02-07T04:01:11.100Z,71.74
2019-02-07T04:02:11.055Z,72.26
2019-02-07T04:03:11.774Z,71.64
2019-02-07T04:04:11.055Z,72.26
2019-02-07T04:05:11.080Z,71.64
2019-02-07T04:06:11.052Z,72.58
2019-02-07T04:07:11.046Z,71.53
2019-02-07T04:08:10.998Z,71.42
2019-02-07T04:09:10.998Z,71.22
2019-02-07T04:10:10.984Z,70.87
2019-02-07T04:11:11.101Z,71.32
2019-02-07T04:12:10.962Z,70.90
2019-02-07T04:13:10.987Z,70.66
2019-02-07T04:14:10.928Z,71.01
2019-02-07T04:15:10.958Z,71.11
2019-02-07T04:16:15.105Z,70.80
2019-02-07T04:17:18.995Z,71.22
2019-02-07T04:18:18.861Z,71.74
2019-02-07T04:19:10.897Z,71.22
2019-02-07T04:20:10.870Z,71.32
2019-02-07T04:21:10.925Z,71.01
2019-02-07T04:22:10.951Z,70.90
2019-02-07T04:23:10.855Z,70.70
2019-02-07T04:24:10.840Z,71.42
2019-02-07T04:25:17.900Z,71.42
2019-02-07T04:26:10.862Z,71.53
2019-02-07T04:27:17.911Z,71.64
2019-02-07T04:28:19.419Z,72.05
2019-02-07T04:29:18.471Z,72.89
2019-02-07T04:30:18.826Z,71.95
2019-02-07T04:31:17.883Z,71.74
2019-02-07T04:32:19.526Z,71.95
2019-02-07T04:33:17.795Z,71.84
2019-02-07T04:34:19.563Z,71.84
2019-02-07T04:35:18.587Z,72.81
2019-02-07T04:36:17.825Z,72.68
2019-02-07T04:37:19.686Z,72.47
2019-02-07T04:38:19.681Z,73.24
2019-02-07T04:39:17.861Z,73.13
2019-02-07T04:40:18.709Z,72.61
2019-02-07T04:41:18.712Z,73.13
2019-02-07T04:42:18.681Z,73.44
2019-02-07T04:43:18.701Z,72.30
2019-02-07T04:44:19.315Z,73.24
2019-02-07T04:45:10.703Z,73.34
2019-02-07T04:46:26.652Z,72.61
2019-02-07T04:47:10.684Z,73.44
2019-02-07T04:48:10.622Z,73.44
2019-02-07T04:49:10.646Z,72.61
2019-02-07T04:50:10.573Z,72.61
2019-02-07T04:51:10.603Z,73.34
2019-02-07T04:52:10.576Z,72.92
2019-02-07T04:53:10.549Z,73.24
2019-02-07T04:54:10.555Z,73.27
2019-02-07T04:55:10.522Z,72.61
2019-02-07T04:56:10.550Z,72.92
2019-02-07T04:57:10.536Z,73.13
2019-02-07T04:58:10.491Z,74.00
2019-02-07T04:59:10.497Z,73.79
2019-02-07T05:00:10.477Z,73.79
2019-02-07T05:01:10.817Z,74.21
2019-02-07T05:02:10.471Z,74.42
2019-02-07T05:03:10.476Z,74.21
2019-02-07T05:04:10.436Z,74.31
2019-02-07T05:05:10.427Z,74.21
2019-02-07T05:06:10.444Z,74.42
2019-02-07T05:07:10.406Z,74.31
2019-02-07T05:08:10.434Z,73.69
2019-02-07T05:09:10.408Z,74.21
2019-02-07T05:10:10.386Z,74.31
2019-02-07T05:11:10.379Z,74.73
2019-02-07T05:12:10.331Z,74.73
2019-02-07T05:13:10.343Z,74.63
2019-02-07T05:14:10.354Z,74.73
2019-02-07T05:15:10.315Z,74.42
2019-02-07T05:16:10.365Z,74.63
2019-02-07T05:17:10.319Z,74.21
2019-02-07T05:18:10.274Z,74.21
2019-02-07T05:19:10.365Z,74.73
2019-02-07T05:20:10.286Z,74.52
2019-02-07T05:21:10.295Z,75.04
2019-02-07T05:22:10.234Z,74.87
2019-02-07T05:23:10.224Z,74.98
2019-02-07T05:24:10.234Z,74.76
2019-02-07T05:25:10.215Z,75.08
2019-02-07T05:26:10.842Z,75.08
2019-02-07T05:27:10.178Z,74.98
2019-02-07T05:28:10.201Z,75.18
2019-02-07T05:29:10.185Z,74.73
2019-02-07T05:30:10.153Z,75.29
2019-02-07T05:31:10.174Z,74.45
2019-02-07T05:32:10.158Z,74.76
2019-02-07T05:33:10.116Z,74.76
2019-02-07T05:34:10.164Z,74.76
2019-02-07T05:35:10.120Z,74.73
2019-02-07T05:36:10.117Z,74.35
2019-02-07T05:37:10.849Z,74.35
2019-02-07T05:38:10.050Z,74.14
2019-02-07T05:39:10.048Z,74.63
2019-02-07T05:40:10.062Z,74.66
2019-02-07T05:41:10.086Z,74.76
2019-02-07T05:42:10.072Z,74.42
2019-02-07T05:43:10.831Z,74.35
2019-02-07T05:44:10.055Z,74.14
2019-02-07T05:45:10.031Z,74.35
2019-02-07T05:46:09.999Z,74.45
2019-02-07T05:47:10.008Z,74.66
2019-02-07T05:48:10.001Z,74.55
2019-02-07T05:49:09.978Z,74.98
2019-02-07T05:50:09.971Z,74.66
2019-02-07T05:51:09.932Z,75.08
2019-02-07T05:52:09.973Z,75.32
2019-02-07T05:53:09.911Z,75.01
2019-02-07T05:54:09.907Z,75.01
2019-02-07T05:55:09.924Z,75.11
2019-02-07T05:56:09.880Z,75.22
2019-02-07T05:57:09.920Z,75.11
2019-02-07T05:58:09.884Z,75.01
2019-02-07T05:59:09.839Z,74.80
2019-02-07T06:00:09.858Z,75.22
2019-02-07T06:01:09.845Z,74.80
2019-02-07T06:02:09.874Z,75.32
2019-02-07T06:03:09.836Z,75.01
2019-02-07T06:04:09.855Z,74.69
2019-02-07T06:05:09.803Z,75.43
2019-02-07T06:06:09.784Z,75.22
2019-02-07T06:07:10.309Z,75.22
2019-02-07T06:08:17.348Z,75.22
2019-02-07T06:09:09.909Z,75.11
2019-02-07T06:10:09.738Z,75.11
2019-02-07T06:11:09.707Z,74.80
2019-02-07T06:12:09.769Z,74.94
2019-02-07T06:13:09.722Z,74.80
2019-02-07T06:14:09.702Z,75.46
2019-02-07T06:15:09.666Z,74.80
2019-02-07T06:16:09.647Z,74.80
2019-02-07T06:17:09.867Z,75.01
2019-02-07T06:18:10.344Z,75.95
2019-02-07T06:19:09.685Z,74.69
2019-02-07T06:20:09.715Z,75.98
2019-02-07T06:21:09.627Z,75.63
2019-02-07T06:22:09.633Z,74.69
2019-02-07T06:23:09.598Z,74.80
2019-02-07T06:24:17.422Z,75.01
2019-02-07T06:25:16.691Z,75.43
2019-02-07T06:26:17.671Z,74.90
2019-02-07T06:27:16.625Z,74.90
2019-02-07T06:28:16.915Z,74.69
2019-02-07T06:29:17.475Z,74.80
2019-02-07T06:30:18.489Z,74.90
2019-02-07T06:31:17.615Z,74.24
2019-02-07T06:32:09.546Z,74.66
2019-02-07T06:33:09.516Z,74.14
2019-02-07T06:34:09.504Z,72.99
2019-02-07T06:35:09.479Z,73.93
2019-02-07T06:36:09.471Z,73.61
2019-02-07T06:37:09.500Z,73.27
2019-02-07T06:38:09.426Z,73.61
2019-02-07T06:39:09.435Z,72.53
2019-02-07T06:40:09.419Z,72.43
2019-02-07T06:41:09.405Z,72.75
2019-02-07T06:42:09.413Z,72.64
2019-02-07T06:43:09.423Z,72.75
2019-02-07T06:44:09.385Z,72.12
2019-02-07T06:45:09.384Z,72.12
2019-02-07T06:46:09.382Z,72.30
2019-02-07T06:47:13.458Z,71.77
2019-02-07T06:48:09.345Z,71.46
2019-02-07T06:49:17.357Z,71.36
2019-02-07T06:50:09.366Z,71.04
2019-02-07T06:51:09.342Z,71.88
2019-02-07T06:52:09.314Z,71.04
2019-02-07T06:53:11.213Z,70.52
2019-02-07T06:54:09.263Z,70.80
2019-02-07T06:55:09.289Z,70.70
2019-02-07T06:56:09.254Z,70.90
2019-02-07T06:57:09.283Z,70.59
2019-02-07T06:58:09.229Z,70.28
2019-02-07T06:59:09.254Z,70.48
2019-02-07T07:00:09.225Z,70.17
2019-02-07T07:01:09.195Z,71.11
2019-02-07T07:02:09.217Z,70.17
2019-02-07T07:03:09.188Z,70.70
2019-02-07T07:04:09.159Z,70.38
2019-02-07T07:05:18.070Z,70.70
2019-02-07T07:06:09.246Z,70.48
2019-02-07T07:07:09.170Z,70.70
2019-02-07T07:08:09.128Z,70.17
2019-02-07T07:09:09.110Z,70.17
2019-02-07T07:10:09.119Z,70.17
2019-02-07T07:11:09.098Z,69.86
2019-02-07T07:12:09.114Z,70.28
2019-02-07T07:13:09.083Z,70.48
2019-02-07T07:14:09.076Z,70.70
2019-02-07T07:15:09.051Z,69.86
2019-02-07T07:16:09.047Z,70.70
2019-02-07T07:17:09.073Z,70.35
2019-02-07T07:18:09.062Z,69.86
2019-02-07T07:19:09.010Z,70.35
2019-02-07T07:20:09.026Z,70.14
2019-02-07T07:21:08.993Z,69.51
2019-02-07T07:22:09.003Z,69.51
2019-02-07T07:23:09.560Z,69.41
2019-02-07T07:24:09.027Z,69.51
2019-02-07T07:25:08.950Z,69.31
2019-02-07T07:26:09.496Z,69.31
2019-02-07T07:27:09.013Z,69.31
2019-02-07T07:28:08.928Z,68.85
2019-02-07T07:29:10.606Z,68.68
2019-02-07T07:30:08.894Z,68.65
2019-02-07T07:31:08.897Z,68.89
2019-02-07T07:32:08.898Z,68.54
2019-02-07T07:33:08.866Z,68.68
2019-02-07T07:34:08.860Z,68.78
2019-02-07T07:35:08.860Z,68.65
2019-02-07T07:36:08.894Z,68.65
2019-02-07T07:37:08.873Z,68.33
2019-02-07T07:38:08.828Z,68.85
2019-02-07T07:39:08.815Z,69.38
2019-02-07T07:40:08.833Z,68.33
2019-02-07T07:41:08.798Z,68.75
2019-02-07T07:42:08.814Z,68.13
2019-02-07T07:43:08.758Z,68.44
2019-02-07T07:44:08.818Z,68.13
2019-02-07T07:45:08.740Z,67.71
2019-02-07T07:46:08.841Z,67.81
2019-02-07T07:47:08.768Z,67.71
2019-02-07T07:48:08.765Z,67.99
2019-02-07T07:49:10.508Z,67.99
2019-02-07T07:50:08.678Z,67.26
2019-02-07T07:51:08.686Z,67.16
2019-02-07T07:52:08.690Z,67.47
2019-02-07T07:53:08.688Z,67.26
2019-02-07T07:54:08.680Z,67.57
2019-02-07T07:55:08.624Z,67.47
2019-02-07T07:56:08.652Z,67.26
2019-02-07T07:57:08.654Z,67.47
2019-02-07T07:58:08.645Z,67.26
2019-02-07T07:59:16.609Z,67.26
2019-02-07T08:00:08.617Z,68.07
2019-02-07T08:01:08.575Z,67.23
2019-02-07T08:02:10.182Z,66.92
2019-02-07T08:03:08.553Z,67.75
2019-02-07T08:04:08.585Z,67.13
2019-02-07T08:05:08.567Z,67.33
2019-02-07T08:06:08.553Z,67.33
2019-02-07T08:07:16.624Z,67.13
2019-02-07T08:08:16.654Z,67.02
2019-02-07T08:09:08.489Z,67.33
2019-02-07T08:10:08.534Z,67.23
2019-02-07T08:11:08.490Z,67.54
2019-02-07T08:12:08.455Z,67.33
2019-02-07T08:13:08.479Z,67.13
2019-02-07T08:14:09.148Z,67.68
2019-02-07T08:15:08.455Z,67.13
2019-02-07T08:16:08.446Z,67.23
2019-02-07T08:17:16.199Z,67.65
2019-02-07T08:18:15.581Z,67.44
2019-02-07T08:19:17.210Z,67.75
2019-02-07T08:20:17.187Z,67.88
2019-02-07T08:21:08.395Z,67.36
2019-02-07T08:22:16.402Z,67.75
2019-02-07T08:23:16.527Z,68.07
2019-02-07T08:27:47.363Z,67.33
2019-02-07T08:28:55.207Z,67.65
2019-02-07T08:29:55.061Z,67.65
2019-02-07T08:30:54.793Z,67.33
2019-02-07T08:31:56.136Z,67.99
2019-02-07T08:32:55.202Z,67.13
2019-02-07T08:33:55.153Z,68.07
2019-02-07T08:34:54.702Z,67.02
2019-02-07T08:35:55.648Z,67.33
2019-02-07T08:38:03.956Z,67.54
2019-02-07T08:39:04.012Z,68.79
2019-02-07T08:40:03.971Z,67.82
2019-02-07T08:41:03.978Z,67.02
2019-02-07T08:42:03.935Z,68.35
2019-02-07T08:43:03.942Z,66.47
2019-02-07T08:44:03.898Z,67.61
2019-02-07T08:45:04.537Z,66.89
2019-02-07T08:46:03.940Z,67.20
2019-02-07T08:47:03.924Z,67.30
2019-02-07T08:48:04.122Z,66.57
2019-02-07T08:49:03.870Z,66.68
2019-02-07T08:50:03.871Z,67.20
2019-02-07T08:51:03.845Z,66.44
2019-02-07T08:52:04.500Z,65.95
2019-02-07T08:53:03.864Z,65.92
2019-02-07T08:54:03.857Z,65.50
2019-02-07T08:55:03.801Z,66.13
2019-02-07T08:56:03.801Z,66.02
2019-02-07T08:57:03.790Z,65.09
2019-02-07T08:58:03.966Z,65.09
2019-02-07T08:59:11.809Z,64.87
2019-02-07T09:02:27.515Z,64.46
2019-02-07T09:03:35.575Z,64.56
2019-02-07T09:04:35.775Z,64.36
2019-02-07T09:05:34.480Z,64.56
2019-02-07T09:06:35.490Z,64.53
2019-02-07T09:07:27.430Z,64.75
2019-02-07T09:08:27.417Z,64.43
2019-02-07T09:09:27.390Z,64.75
2019-02-07T09:10:27.368Z,64.36
2019-02-07T09:11:27.361Z,64.67
2019-02-07T09:12:27.430Z,64.15
2019-02-07T09:13:27.360Z,64.36
2019-02-07T09:14:27.340Z,64.36
2019-02-07T09:15:27.296Z,64.46
2019-02-07T09:16:27.288Z,64.56
2019-02-07T09:17:27.287Z,64.43
2019-02-07T09:18:27.305Z,64.64
2019-02-07T09:19:27.310Z,64.53
2019-02-07T09:20:27.280Z,64.53
2019-02-07T09:21:27.258Z,64.64
2019-02-07T09:22:34.337Z,64.01
2019-02-07T09:23:35.317Z,63.46
2019-02-07T09:24:35.945Z,63.36
2019-02-07T09:25:35.228Z,63.26
2019-02-07T09:26:35.726Z,63.05
2019-02-07T09:28:43.863Z,62.71
2019-02-07T09:29:43.760Z,62.50
2019-02-07T09:30:43.765Z,62.57
2019-02-07T09:31:43.735Z,61.64
2019-02-07T09:32:43.712Z,61.74
2019-02-07T09:33:43.718Z,61.74
2019-02-07T09:34:43.691Z,61.64
2019-02-07T09:35:43.705Z,60.88
2019-02-07T09:36:43.690Z,60.99
2019-02-07T09:37:43.683Z,59.95
2019-02-07T09:38:43.725Z,60.34
2019-02-07T09:39:43.691Z,59.61
2019-02-07T09:40:43.692Z,59.71
2019-02-07T09:41:43.624Z,58.78
2019-02-07T09:42:43.634Z,58.54
2019-02-07T09:43:51.674Z,57.92
2019-02-07T09:44:43.658Z,57.48
2019-02-07T09:45:43.559Z,57.28
2019-02-07T09:46:43.567Z,57.14
2019-02-07T09:47:43.559Z,56.31
2019-02-07T09:48:50.667Z,56.31
2019-02-07T09:49:51.669Z,56.18
2019-02-07T09:50:50.617Z,55.90
2019-02-07T09:51:43.509Z,56.83
2019-02-07T09:52:43.512Z,56.08
2019-02-07T09:53:43.500Z,55.64
2019-02-07T09:54:43.496Z,54.79
2019-02-07T09:55:43.491Z,55.22
2019-02-07T09:56:43.459Z,54.06
2019-02-07T09:57:43.469Z,55.25
2019-02-07T09:58:43.470Z,55.51
2019-02-07T09:59:43.431Z,54.47
2019-02-07T10:00:43.440Z,55.64
2019-02-07T10:01:43.461Z,56.26
2019-02-07T10:02:43.400Z,55.85
2019-02-07T10:03:43.441Z,55.07
2019-02-07T10:04:43.395Z,54.11
2019-02-07T10:05:43.384Z,54.55
2019-02-07T10:06:43.393Z,55.62
2019-02-07T10:07:43.344Z,55.85
2019-02-07T10:08:43.344Z,56.37
2019-02-07T10:09:43.354Z,55.98
2019-02-07T10:10:43.328Z,57.53
2019-02-07T10:11:43.361Z,57.87
2019-02-07T10:12:43.320Z,57.32
2019-02-07T10:13:43.282Z,57.43
2019-02-07T10:14:43.295Z,57.12
2019-02-07T10:15:43.270Z,57.35
2019-02-07T10:16:43.257Z,57.76
2019-02-07T10:17:43.272Z,57.22
2019-02-07T10:18:43.259Z,57.20
2019-02-07T10:19:43.246Z,56.65
2019-02-07T10:20:43.215Z,54.55
2019-02-07T10:21:43.827Z,55.90
2019-02-07T10:22:51.778Z,55.79
2019-02-07T10:23:50.277Z,54.24
2019-02-07T10:24:51.303Z,54.30
2019-02-07T10:25:43.201Z,53.86
2019-02-07T10:26:43.148Z,52.31
2019-02-07T10:27:43.140Z,52.49
2019-02-07T10:28:43.142Z,51.97
2019-02-07T10:29:43.153Z,51.31
2019-02-07T10:30:43.078Z,50.79
2019-02-07T10:31:43.125Z,51.33
2019-02-07T10:32:43.077Z,51.20
2019-02-07T10:33:43.087Z,50.25
2019-02-07T10:34:43.085Z,49.32
2019-02-07T10:35:43.029Z,48.78
2019-02-07T10:36:43.044Z,49.01
2019-02-07T10:37:43.041Z,49.01
2019-02-07T10:38:43.038Z,49.09
2019-02-07T10:39:43.033Z,48.14
2019-02-07T10:40:43.012Z,47.73
2019-02-07T10:41:42.999Z,47.35
2019-02-07T10:42:42.961Z,45.75
2019-02-07T10:43:42.965Z,43.65
2019-02-07T10:44:42.993Z,44.02
2019-02-07T10:45:42.959Z,45.44
2019-02-07T10:46:42.932Z,47.67
2019-02-07T10:47:42.940Z,48.72
2019-02-07T10:48:44.607Z,49.04
2019-02-07T10:49:42.942Z,48.65
2019-02-07T10:50:42.889Z,48.95
2019-02-07T10:51:42.900Z,48.95
2019-02-07T10:52:42.902Z,49.26
2019-02-07T10:53:42.906Z,50.09
2019-02-07T10:54:42.921Z,49.05
2019-02-07T10:55:42.838Z,49.14
2019-02-07T10:56:42.833Z,48.19
2019-02-07T10:57:42.838Z,48.29
2019-02-07T10:58:42.834Z,48.80
2019-02-07T10:59:42.831Z,49.16
2019-02-07T11:00:42.817Z,49.14
2019-02-07T11:01:42.792Z,49.05
2019-02-07T11:02:42.769Z,50.96
2019-02-07T11:03:42.773Z,50.65
2019-02-07T11:04:42.796Z,50.11
2019-02-07T11:05:42.714Z,50.32
2019-02-07T11:06:42.720Z,50.76
2019-02-07T11:07:42.739Z,50.42
2019-02-07T11:08:43.334Z,50.21
2019-02-07T11:09:42.718Z,50.42
2019-02-07T11:10:42.705Z,50.63
2019-02-07T11:11:42.673Z,50.73
2019-02-07T11:12:42.663Z,50.71
2019-02-07T11:13:42.652Z,49.39
2019-02-07T11:14:42.648Z,49.88
2019-02-07T11:15:42.647Z,49.16
2019-02-07T11:16:42.626Z,48.85
2019-02-07T11:17:42.656Z,49.68
2019-02-07T11:18:42.581Z,49.05
2019-02-07T11:19:43.303Z,49.16
2019-02-07T11:20:42.615Z,49.18
2019-02-07T11:21:42.577Z,49.60
2019-02-07T11:22:42.572Z,50.55
2019-02-07T11:23:42.578Z,50.76
2019-02-07T11:24:42.532Z,51.28
2019-02-07T11:25:42.531Z,50.96
2019-02-07T11:26:42.519Z,51.17
2019-02-07T11:27:42.544Z,50.96
2019-02-07T11:28:42.479Z,51.40
2019-02-07T11:29:42.484Z,51.29
2019-02-07T11:30:42.472Z,50.99
2019-02-07T11:31:42.488Z,50.65
2019-02-07T11:32:42.461Z,50.86
2019-02-07T11:33:42.441Z,49.88
2019-02-07T11:34:42.436Z,48.62
2019-02-07T11:35:42.412Z,48.41
2019-02-07T11:36:53.612Z,48.27
2019-02-07T11:37:43.426Z,46.10
2019-02-07T11:38:42.413Z,46.08
2019-02-07T11:39:42.384Z,45.13
2019-02-07T11:40:42.395Z,45.46
2019-02-07T11:41:42.366Z,46.10
2019-02-07T11:42:42.337Z,46.51
2019-02-07T11:43:42.341Z,46.31
2019-02-07T11:44:42.366Z,46.51
2019-02-07T11:45:42.351Z,45.75
2019-02-07T11:46:42.457Z,44.64
2019-02-07T11:47:42.278Z,42.14
2019-02-07T11:48:42.307Z,41.99
2019-02-07T11:49:42.280Z,39.90
2019-02-07T11:50:42.279Z,40.05
2019-02-07T11:51:42.246Z,41.88
2019-02-07T11:52:42.287Z,43.44
2019-02-07T11:53:42.262Z,43.99
2019-02-07T11:54:42.819Z,44.32
2019-02-07T11:55:42.206Z,44.89
2019-02-07T11:56:42.217Z,45.32
2019-02-07T11:57:42.228Z,45.94
2019-02-07T11:58:42.203Z,46.04
2019-02-07T11:59:42.165Z,46.99
2019-02-07T12:00:42.171Z,46.17
2019-02-07T12:01:42.163Z,46.89
2019-02-07T12:02:42.126Z,46.35
2019-02-07T12:03:42.111Z,46.25
2019-02-07T12:04:42.119Z,45.94
2019-02-07T12:06:59.050Z,46.37
2019-02-07T12:08:07.131Z,46.19
2019-02-07T12:09:06.080Z,46.70
2019-02-07T12:10:07.044Z,46.70
2019-02-07T12:11:06.255Z,46.39
2019-02-07T12:12:06.661Z,46.70
2019-02-07T12:12:58.934Z,46.91
2019-02-07T12:14:07.933Z,47.34
2019-02-07T12:15:07.958Z,47.42
2019-02-07T12:16:06.992Z,47.42
2019-02-07T12:17:07.766Z,47.42
2019-02-07T12:18:05.936Z,46.19
2019-02-07T12:19:17.500Z,47.32
2019-02-07T12:21:09.520Z,46.68
2019-02-07T12:22:18.449Z,46.17
2019-02-07T12:23:18.403Z,45.44
2019-02-07T12:24:09.508Z,46.14
2019-02-07T12:25:09.491Z,46.86
2019-02-07T12:26:09.481Z,46.14
2019-02-07T12:27:09.438Z,45.53
2019-02-07T12:28:09.416Z,45.21
2019-02-07T12:29:09.393Z,45.75
2019-02-07T12:30:09.393Z,46.47
2019-02-07T12:31:10.416Z,46.37
2019-02-07T12:32:09.436Z,46.37
2019-02-07T12:33:09.385Z,46.27
2019-02-07T12:34:09.355Z,46.27
2019-02-07T12:35:09.368Z,46.37
2019-02-07T12:36:09.335Z,46.29
2019-02-07T12:37:09.313Z,45.56
2019-02-07T12:38:09.303Z,46.29
2019-02-07T12:39:09.422Z,46.08
2019-02-07T12:40:09.304Z,46.41
2019-02-07T12:41:09.298Z,46.11
2019-02-07T12:42:09.269Z,46.39
2019-02-07T12:43:09.261Z,45.79
2019-02-07T12:44:09.243Z,46.21
2019-02-07T12:45:09.258Z,46.29
2019-02-07T12:46:09.254Z,45.90
2019-02-07T12:47:09.248Z,46.41
2019-02-07T12:48:09.185Z,47.11
2019-02-07T12:49:09.190Z,46.19
2019-02-07T12:50:09.211Z,46.89
2019-02-07T12:51:09.191Z,45.01
2019-02-07T12:52:09.163Z,45.11
2019-02-07T12:53:09.190Z,45.19
2019-02-07T12:54:09.141Z,45.11
2019-02-07T12:55:09.129Z,45.73
2019-02-07T12:56:09.160Z,46.17
2019-02-07T12:57:09.106Z,46.25
2019-02-07T12:58:09.110Z,45.21
2019-02-07T12:59:09.950Z,45.75
2019-02-07T13:00:09.051Z,45.23
2019-02-07T13:01:09.098Z,45.75
2019-02-07T13:02:09.045Z,45.53
2019-02-07T13:03:09.097Z,45.11
2019-02-07T13:04:09.045Z,45.63
2019-02-07T13:05:09.061Z,45.21
2019-02-07T13:06:09.056Z,45.42